createdAt,value
2022-12-11T00:03:11.360Z,12.70
2022-12-11T00:08:16.133Z,12.70
2022-12-11T00:13:18.022Z,14.77
2022-12-11T00:18:19.847Z,13.45
2022-12-11T00:23:21.744Z,13.65
2022-12-11T00:28:23.738Z,13.45
2022-12-11T00:33:26.523Z,13.00
2022-12-11T00:38:28.344Z,12.45
2022-12-11T00:43:30.440Z,14.50
2022-12-11T00:48:32.596Z,13.75
2022-12-11T00:53:34.419Z,14.97
2022-12-11T00:58:36.224Z,11.85
2022-12-11T01:03:38.261Z,12.43
2022-12-11T01:08:40.073Z,13.65
2022-12-11T01:13:42.525Z,12.60
2022-12-11T01:18:44.374Z,11.63
2022-12-11T01:23:46.200Z,10.90
2022-12-11T01:28:51.415Z,13.05
2022-12-11T01:33:56.318Z,13.27
2022-12-11T01:38:58.141Z,12.88
2022-12-11T01:43:59.954Z,13.50
2022-12-11T01:49:03.444Z,13.60
2022-12-11T01:54:10.408Z,13.15
2022-12-11T01:59:13.076Z,12.02
2022-12-11T02:04:15.671Z,13.35
2022-12-11T02:09:23.030Z,12.43
2022-12-11T02:14:29.024Z,12.93
2022-12-11T02:19:40.635Z,11.20
2022-12-11T02:24:58.322Z,11.10
2022-12-11T02:30:00.161Z,12.30
2022-12-11T02:35:08.920Z,11.27
2022-12-11T02:40:13.220Z,10.75
2022-12-11T02:45:16.328Z,10.77
2022-12-11T02:50:20.377Z,10.93
2022-12-11T02:55:22.543Z,11.65
2022-12-11T03:00:24.417Z,11.63
2022-12-11T03:05:26.360Z,11.48
2022-12-11T03:10:28.163Z,11.77
2022-12-11T03:15:34.821Z,11.50
2022-12-11T03:20:43.078Z,10.48
2022-12-11T03:25:59.363Z,12.73
2022-12-11T03:31:03.656Z,11.25
2022-12-11T03:36:07.310Z,10.68
2022-12-11T03:41:10.511Z,10.27
2022-12-11T03:51:15.094Z,10.50
2022-12-11T03:56:17.543Z,12.30
2022-12-11T04:01:19.396Z,11.03
2022-12-11T04:06:21.208Z,11.00
2022-12-11T04:11:23.065Z,11.88
2022-12-11T04:16:24.897Z,11.52
2022-12-11T04:21:26.819Z,13.05
2022-12-11T04:26:28.631Z,13.32
2022-12-11T04:31:30.477Z,13.73
2022-12-11T04:36:32.324Z,11.85
2022-12-11T04:41:34.261Z,12.52
2022-12-11T04:46:36.170Z,12.25
2022-12-11T04:51:38.041Z,12.68
2022-12-11T04:56:39.891Z,12.65
2022-12-11T05:01:41.784Z,12.93
2022-12-11T05:06:43.610Z,13.15
2022-12-11T05:11:46.607Z,14.50
2022-12-11T05:16:48.471Z,13.25
2022-12-11T05:21:50.284Z,12.93
2022-12-11T05:26:52.173Z,13.52
2022-12-11T05:31:53.987Z,12.82
2022-12-11T05:36:55.787Z,13.98
2022-12-11T05:41:57.610Z,14.05
2022-12-11T05:46:59.526Z,14.20
2022-12-11T05:52:01.401Z,13.82
2022-12-11T05:57:03.219Z,14.43
2022-12-11T06:02:05.127Z,15.13
2022-12-11T06:07:07.007Z,14.30
2022-12-11T06:12:08.853Z,14.18
2022-12-11T06:17:10.666Z,13.00
2022-12-11T06:22:12.507Z,13.77
2022-12-11T06:27:14.334Z,12.52
2022-12-11T06:32:16.120Z,14.68
2022-12-11T06:37:17.927Z,14.60
2022-12-11T06:42:19.784Z,13.23
2022-12-11T06:47:21.592Z,13.98
2022-12-11T06:52:23.991Z,13.15
2022-12-11T06:57:25.889Z,13.90
2022-12-11T07:02:27.744Z,13.10
2022-12-11T07:07:29.638Z,15.40
2022-12-11T07:12:31.447Z,13.52
2022-12-11T07:17:33.267Z,10.95
2022-12-11T07:22:35.151Z,13.88
2022-12-11T07:27:36.949Z,12.73
2022-12-11T07:32:38.821Z,14.65
2022-12-11T07:37:40.976Z,12.40
2022-12-11T07:42:46.121Z,13.65
2022-12-11T07:47:48.290Z,12.73
2022-12-11T07:52:50.157Z,12.60
2022-12-11T07:57:51.980Z,13.00
2022-12-11T08:02:53.845Z,12.88
2022-12-11T08:07:55.684Z,14.95
2022-12-11T08:12:57.500Z,14.18
2022-12-11T08:17:59.318Z,14.65
2022-12-11T08:23:01.142Z,12.82
2022-12-11T08:28:03.637Z,13.32
2022-12-11T08:33:07.202Z,14.30
2022-12-11T08:38:09.016Z,13.25
2022-12-11T08:43:10.812Z,13.77
2022-12-11T08:48:12.634Z,13.35
2022-12-11T08:53:14.520Z,15.07
2022-12-11T08:58:16.304Z,13.15
2022-12-11T09:03:18.138Z,15.48
2022-12-11T09:08:20.013Z,13.40
2022-12-11T09:13:21.933Z,15.27
2022-12-11T09:18:23.755Z,13.13
2022-12-11T09:23:25.554Z,13.90
2022-12-11T09:28:27.434Z,13.77
2022-12-11T09:33:29.233Z,12.48
2022-12-11T09:38:31.690Z,13.02
2022-12-11T09:43:38.069Z,12.37
2022-12-11T09:48:41.082Z,11.13
2022-12-11T09:53:42.935Z,12.25
2022-12-11T09:58:50.799Z,12.45
2022-12-11T10:03:55.424Z,13.30
2022-12-11T10:09:03.161Z,14.27
2022-12-11T10:14:25.846Z,11.50
2022-12-11T10:19:29.299Z,13.68
2022-12-11T10:30:14.727Z,14.00
2022-12-11T10:35:25.367Z,13.50
2022-12-11T10:40:29.160Z,14.80
2022-12-11T10:45:30.996Z,13.38
2022-12-11T10:50:33.060Z,12.65
2022-12-11T10:55:44.712Z,13.70
2022-12-11T11:00:47.017Z,14.57
2022-12-11T11:05:49.686Z,14.63
2022-12-11T11:10:55.568Z,13.90
2022-12-11T11:16:08.618Z,14.05
2022-12-11T11:21:28.679Z,13.70
2022-12-11T11:26:56.585Z,14.82
2022-12-11T11:31:53.862Z,16.10
2022-12-11T11:36:57.284Z,14.85
2022-12-11T11:42:06.554Z,13.35
2022-12-11T11:47:11.419Z,13.55
2022-12-11T11:52:19.308Z,13.80
2022-12-11T11:57:32.329Z,14.25
2022-12-11T12:02:34.203Z,14.15
2022-12-11T12:07:51.312Z,13.60
2022-12-11T12:12:53.145Z,12.88
2022-12-11T12:17:56.493Z,14.40
2022-12-11T12:23:04.564Z,15.50
2022-12-11T12:28:21.655Z,14.25
2022-12-11T12:33:23.471Z,14.32
2022-12-11T12:38:51.626Z,13.63
2022-12-11T12:43:53.437Z,14.60
2022-12-11T12:48:56.968Z,14.95
2022-12-11T12:54:00.196Z,14.20
2022-12-11T13:04:05.404Z,13.77
2022-12-11T13:09:26.635Z,13.80
2022-12-11T13:14:29.950Z,14.13
2022-12-11T13:19:37.628Z,15.15
2022-12-11T13:25:08.966Z,15.32
2022-12-11T13:30:19.796Z,14.27
2022-12-11T13:35:21.674Z,15.20
2022-12-11T13:40:28.871Z,14.75
2022-12-11T13:45:44.000Z,15.00
2022-12-11T13:50:46.202Z,15.13
2022-12-11T13:55:56.380Z,15.77
2022-12-11T14:01:04.304Z,14.93
2022-12-11T14:06:14.769Z,15.32
2022-12-11T14:16:23.159Z,15.73
2022-12-11T14:21:25.848Z,15.30
2022-12-11T14:26:32.316Z,15.95
2022-12-11T14:31:36.767Z,13.82
2022-12-11T14:36:39.335Z,14.30
2022-12-11T14:41:47.056Z,14.68
2022-12-11T14:46:50.185Z,14.63
2022-12-11T14:51:53.743Z,15.70
2022-12-11T14:56:56.007Z,15.00
2022-12-11T15:01:58.892Z,15.83
2022-12-11T15:07:03.593Z,14.10
2022-12-11T15:12:15.742Z,15.10
2022-12-11T15:17:17.893Z,14.88
2022-12-11T15:22:21.520Z,14.38
2022-12-11T15:27:23.335Z,15.05
2022-12-11T15:32:25.175Z,15.35
2022-12-11T15:37:28.456Z,15.82
2022-12-11T15:47:31.959Z,14.57
2022-12-11T15:52:33.755Z,15.85
2022-12-11T15:57:35.795Z,15.93
2022-12-11T16:02:37.702Z,15.07
2022-12-11T16:07:39.901Z,16.90
2022-12-11T16:12:41.773Z,14.95
2022-12-11T16:17:43.586Z,14.90
2022-12-11T16:22:45.376Z,15.77
2022-12-11T16:27:47.202Z,15.07
2022-12-11T16:32:49.112Z,16.33
2022-12-11T16:37:51.708Z,14.30
2022-12-11T16:42:53.568Z,16.08
2022-12-11T16:47:55.379Z,13.98
2022-12-11T16:52:57.185Z,15.30
2022-12-11T16:57:58.985Z,16.25
2022-12-11T17:03:01.032Z,15.93
2022-12-11T17:08:03.015Z,16.33
2022-12-11T17:13:04.930Z,16.25
2022-12-11T17:18:07.024Z,16.52
2022-12-11T17:23:09.634Z,16.60
2022-12-11T17:28:12.288Z,16.80
2022-12-11T17:33:14.228Z,16.70
2022-12-11T17:38:16.054Z,15.82
2022-12-11T17:43:17.964Z,15.68
2022-12-11T17:48:20.152Z,14.73
2022-12-11T17:53:22.352Z,15.60
2022-12-11T17:58:24.740Z,15.13
2022-12-11T18:03:27.423Z,15.55
2022-12-11T18:08:29.331Z,15.25
2022-12-11T18:13:31.158Z,16.27
2022-12-11T18:18:33.138Z,16.00
2022-12-11T18:23:34.991Z,14.90
2022-12-11T18:28:37.930Z,16.08
2022-12-11T18:33:40.879Z,15.50
2022-12-11T18:38:43.117Z,16.63
2022-12-11T18:43:44.943Z,16.23
2022-12-11T18:48:47.925Z,16.77
2022-12-11T18:53:50.301Z,17.48
2022-12-11T18:58:52.155Z,16.47
2022-12-11T19:04:00.616Z,16.85
2022-12-11T19:09:05.787Z,16.40
2022-12-11T19:19:13.434Z,16.25
2022-12-11T19:24:17.109Z,17.70
2022-12-11T19:29:20.342Z,15.75
2022-12-11T19:34:22.952Z,17.02
2022-12-11T19:39:25.310Z,17.25
2022-12-11T19:44:27.296Z,17.35
2022-12-11T19:49:29.257Z,15.88
2022-12-11T19:54:32.239Z,16.20
2022-12-11T19:59:34.175Z,15.05
2022-12-11T20:04:35.995Z,15.73
2022-12-11T20:09:38.087Z,16.40
2022-12-11T20:14:40.236Z,16.17
2022-12-11T20:19:42.423Z,15.82
2022-12-11T20:24:44.491Z,17.30
2022-12-11T20:29:46.349Z,15.00
2022-12-11T20:34:48.401Z,15.07
2022-12-11T20:39:50.333Z,15.15
2022-12-11T20:44:52.489Z,16.80
2022-12-11T20:49:54.555Z,16.98
2022-12-11T20:54:56.546Z,15.02
2022-12-11T20:59:58.399Z,15.65
2022-12-11T21:05:00.193Z,15.80
2022-12-11T21:10:02.039Z,16.25
2022-12-11T21:15:04.611Z,15.88
2022-12-11T21:20:06.619Z,14.95
2022-12-11T21:25:08.615Z,16.42
2022-12-11T21:30:10.685Z,16.25
2022-12-11T21:35:12.921Z,15.52
2022-12-11T21:40:15.355Z,16.55
2022-12-11T21:45:59.886Z,16.75
2022-12-11T21:50:39.640Z,15.07
2022-12-11T21:55:41.744Z,18.33
2022-12-11T22:00:45.363Z,15.20
2022-12-11T22:05:47.193Z,16.50
2022-12-11T22:10:49.605Z,15.75
2022-12-11T22:15:51.427Z,15.23
2022-12-11T22:20:54.415Z,15.80
2022-12-11T22:25:56.277Z,15.88
2022-12-11T22:30:58.620Z,15.75
2022-12-11T22:36:01.807Z,15.95
2022-12-11T22:41:16.277Z,16.20
2022-12-11T22:46:21.673Z,14.35
2022-12-11T22:51:23.522Z,15.25
2022-12-11T22:56:25.600Z,15.25
2022-12-11T23:01:27.757Z,14.50
2022-12-11T23:06:29.663Z,15.55
2022-12-11T23:11:33.923Z,16.15
2022-12-11T23:16:35.919Z,16.13
2022-12-11T23:21:38.447Z,14.45
2022-12-11T23:26:41.015Z,16.15
2022-12-11T23:31:42.875Z,15.18
2022-12-11T23:36:44.843Z,16.90
2022-12-11T23:41:46.661Z,15.95
2022-12-11T23:46:48.495Z,16.02
2022-12-11T23:51:50.418Z,16.27
2022-12-11T23:56:52.542Z,15.52
